createdAt,value
2016-09-14T00:00:22.316Z,59.33
2016-09-14T00:01:22.308Z,59.14
2016-09-14T00:02:22.285Z,59.14
2016-09-14T00:03:22.274Z,59.05
2016-09-14T00:04:22.257Z,59.23
2016-09-14T00:05:22.250Z,59.43
2016-09-14T00:06:22.247Z,59.05
2016-09-14T00:07:22.224Z,59.05
2016-09-14T00:08:22.212Z,59.23
2016-09-14T00:09:21.877Z,59.05
2016-09-14T00:10:22.182Z,59.14
2016-09-14T00:11:22.177Z,59.05
2016-09-14T00:12:21.831Z,59.14
2016-09-14T00:13:22.141Z,59.05
2016-09-14T00:14:22.118Z,59.05
2016-09-14T00:15:22.108Z,59.14
2016-09-14T00:16:22.092Z,59.05
2016-09-14T00:17:22.088Z,59.14
2016-09-14T00:18:22.064Z,59.14
2016-09-14T00:19:22.049Z,59.23
2016-09-14T00:20:21.721Z,59.14
2016-09-14T00:21:22.021Z,59.14
2016-09-14T00:22:22.005Z,58.95
2016-09-14T00:23:22.003Z,59.05
2016-09-14T00:24:21.981Z,59.05
2016-09-14T00:25:21.970Z,58.95
2016-09-14T00:26:21.638Z,58.75
2016-09-14T00:27:21.942Z,58.95
2016-09-14T00:28:21.929Z,58.95
2016-09-14T00:29:21.912Z,58.95
2016-09-14T00:30:21.896Z,58.56
2016-09-14T00:31:21.889Z,58.75
2016-09-14T00:32:21.869Z,58.95
2016-09-14T00:33:21.857Z,59.14
2016-09-14T00:34:21.836Z,58.95
2016-09-14T00:35:21.825Z,59.14
2016-09-14T00:36:21.812Z,59.05
2016-09-14T00:37:21.795Z,58.95
2016-09-14T00:38:21.782Z,59.05
2016-09-14T00:39:21.771Z,58.95
2016-09-14T00:40:21.755Z,58.95
2016-09-14T00:41:21.429Z,59.33
2016-09-14T00:42:21.733Z,59.05
2016-09-14T00:43:21.402Z,58.95
2016-09-14T00:44:21.704Z,58.85
2016-09-14T00:45:21.687Z,59.43
2016-09-14T00:46:21.360Z,59.05
2016-09-14T00:47:21.345Z,58.95
2016-09-14T00:48:21.327Z,59.05
2016-09-14T00:49:21.627Z,59.05
2016-09-14T00:50:21.307Z,59.33
2016-09-14T00:51:21.604Z,59.05
2016-09-14T00:52:21.589Z,59.05
2016-09-14T00:53:21.573Z,58.95
2016-09-14T00:54:21.560Z,58.95
2016-09-14T00:55:21.551Z,59.05
2016-09-14T00:56:21.219Z,58.65
2016-09-14T00:57:21.203Z,58.65
2016-09-14T00:58:21.191Z,58.56
2016-09-14T00:59:21.495Z,59.14
2016-09-14T01:00:21.165Z,59.14
2016-09-14T01:01:21.461Z,58.95
2016-09-14T01:02:21.449Z,59.01
2016-09-14T01:03:21.439Z,58.95
2016-09-14T01:04:21.415Z,58.95
2016-09-14T01:05:21.406Z,59.11
2016-09-14T01:06:21.392Z,59.14
2016-09-14T01:07:21.061Z,58.95
2016-09-14T01:08:21.049Z,59.23
2016-09-14T01:09:21.041Z,58.95
2016-09-14T01:10:21.335Z,59.4
2016-09-14T01:11:21.314Z,59.23
2016-09-14T01:12:21.305Z,59.43
2016-09-14T01:13:21.292Z,59.53
2016-09-14T01:14:21.276Z,59.05
2016-09-14T01:15:21.269Z,59.23
2016-09-14T01:16:21.251Z,59.23
2016-09-14T01:17:21.238Z,59.43
2016-09-14T01:18:21.225Z,59.63
2016-09-14T01:19:21.208Z,59.59
2016-09-14T01:20:21.198Z,59.21
2016-09-14T01:21:21.180Z,59.53
2016-09-14T01:22:20.847Z,59.14
2016-09-14T01:23:21.151Z,59.33
2016-09-14T01:24:21.140Z,59.11
2016-09-14T01:25:21.119Z,59.43
2016-09-14T01:26:21.109Z,59.53
2016-09-14T01:27:21.093Z,59.31
2016-09-14T01:28:21.076Z,59.01
2016-09-14T01:29:21.065Z,58.85
2016-09-14T01:30:21.055Z,58.92
2016-09-14T01:31:20.726Z,59.31
2016-09-14T01:32:21.024Z,58.82
2016-09-14T01:33:21.011Z,58.92
2016-09-14T01:34:20.994Z,58.82
2016-09-14T01:35:20.984Z,59.01
2016-09-14T01:36:20.967Z,59.11
2016-09-14T01:37:20.961Z,58.92
2016-09-14T01:38:20.939Z,59.4
2016-09-14T01:39:20.932Z,59.31
2016-09-14T01:40:20.910Z,59.11
2016-09-14T01:41:20.896Z,59.31
2016-09-14T01:42:20.570Z,59.21
2016-09-14T01:43:20.869Z,58.92
2016-09-14T01:44:20.854Z,59.01
2016-09-14T01:45:20.843Z,58.82
2016-09-14T01:46:20.824Z,59.01
2016-09-14T01:47:20.813Z,58.82
2016-09-14T01:48:20.807Z,59.01
2016-09-14T01:49:20.787Z,59.31
2016-09-14T01:50:20.769Z,58.92
2016-09-14T01:51:20.758Z,58.92
2016-09-14T01:52:20.426Z,58.92
2016-09-14T01:53:20.729Z,59.31
2016-09-14T01:54:20.718Z,59.31
2016-09-14T01:55:20.698Z,59.11
2016-09-14T01:56:20.688Z,58.92
2016-09-14T01:57:20.671Z,58.53
2016-09-14T01:58:20.656Z,59.11
2016-09-14T01:59:20.643Z,59.01
2016-09-14T02:00:20.316Z,59.11
2016-09-14T02:01:20.615Z,58.92
2016-09-14T02:02:20.600Z,58.92
2016-09-14T02:03:20.584Z,58.82
2016-09-14T02:04:20.572Z,59.01
2016-09-14T02:05:20.563Z,58.82
2016-09-14T02:06:20.543Z,59.01
2016-09-14T02:07:20.539Z,59.01
2016-09-14T02:08:20.510Z,59.11
2016-09-14T02:09:20.502Z,59.11
2016-09-14T02:10:20.486Z,58.92
2016-09-14T02:11:20.478Z,59.01
2016-09-14T02:12:20.456Z,59.11
2016-09-14T02:13:20.449Z,58.92
2016-09-14T02:14:20.427Z,59.01
2016-09-14T02:15:20.421Z,59.01
2016-09-14T02:16:20.400Z,59.01
2016-09-14T02:17:20.388Z,59.01
2016-09-14T02:18:20.374Z,59.01
2016-09-14T02:19:20.360Z,58.92
2016-09-14T02:20:20.352Z,59.01
2016-09-14T02:21:20.333Z,59.01
2016-09-14T02:22:20.320Z,59.01
2016-09-14T02:23:20.307Z,58.44
2016-09-14T02:24:20.288Z,59.01
2016-09-14T02:25:19.962Z,58.92
2016-09-14T02:26:20.259Z,58.92
2016-09-14T02:27:20.265Z,59.21
2016-09-14T02:28:19.919Z,58.63
2016-09-14T02:29:20.220Z,58.92
2016-09-14T02:30:20.205Z,59.01
2016-09-14T02:31:20.191Z,59.01
2016-09-14T02:32:20.182Z,59.01
2016-09-14T02:33:19.850Z,59.01
2016-09-14T02:34:20.153Z,59.01
2016-09-14T02:35:20.140Z,59.11
2016-09-14T02:36:19.804Z,59.11
2016-09-14T02:37:20.103Z,59.01
2016-09-14T02:38:20.092Z,59.11
2016-09-14T02:39:20.077Z,58.82
2016-09-14T02:40:20.063Z,58.92
2016-09-14T02:41:20.051Z,59.01
2016-09-14T02:42:20.033Z,59.11
2016-09-14T02:43:20.018Z,59.01
2016-09-14T02:44:20.007Z,59.11
2016-09-14T02:45:20.000Z,59.01
2016-09-14T02:46:19.974Z,59.01
2016-09-14T02:47:19.967Z,59.31
2016-09-14T02:48:19.946Z,58.92
2016-09-14T02:49:19.936Z,58.82
2016-09-14T02:50:19.917Z,59.31
2016-09-14T02:51:19.904Z,59.31
2016-09-14T02:52:19.889Z,59.11
2016-09-14T02:53:19.886Z,59.21
2016-09-14T02:54:19.862Z,59.4
2016-09-14T02:55:19.539Z,59.4
2016-09-14T02:56:19.834Z,59.4
2016-09-14T02:57:19.508Z,59.31
2016-09-14T02:58:19.805Z,59.21
2016-09-14T02:59:19.791Z,59.21
2016-09-14T03:00:19.775Z,59.01
2016-09-14T03:01:19.765Z,59.01
2016-09-14T03:02:19.751Z,58.92
2016-09-14T03:03:19.419Z,59.31
2016-09-14T03:04:19.722Z,58.92
2016-09-14T03:05:19.402Z,58.92
2016-09-14T03:06:19.696Z,59.11
2016-09-14T03:07:19.676Z,59.01
2016-09-14T03:08:19.671Z,58.92
2016-09-14T03:09:19.650Z,59.11
2016-09-14T03:10:19.634Z,59.11
2016-09-14T03:11:19.306Z,58.92
2016-09-14T03:12:19.611Z,59.01
2016-09-14T03:13:19.590Z,58.82
2016-09-14T03:14:19.577Z,59.21
2016-09-14T03:15:19.563Z,59.11
2016-09-14T03:16:19.546Z,59.21
2016-09-14T03:17:19.535Z,59.08
2016-09-14T03:18:19.522Z,59.38
2016-09-14T03:19:19.501Z,59.11
2016-09-14T03:20:19.493Z,59.28
2016-09-14T03:21:19.477Z,59.01
2016-09-14T03:22:19.462Z,59.18
2016-09-14T03:23:19.449Z,59.18
2016-09-14T03:24:19.436Z,59.11
2016-09-14T03:25:19.420Z,58.98
2016-09-14T03:26:19.407Z,59.08
2016-09-14T03:27:19.392Z,58.98
2016-09-14T03:28:19.377Z,59.28
2016-09-14T03:29:19.360Z,59.18
2016-09-14T03:30:19.350Z,59.08
2016-09-14T03:31:19.338Z,59.18
2016-09-14T03:32:19.319Z,59.08
2016-09-14T03:33:19.309Z,59.11
2016-09-14T03:34:19.287Z,58.98
2016-09-14T03:35:19.283Z,59.31
2016-09-14T03:36:19.261Z,59.08
2016-09-14T03:37:19.251Z,58.8
2016-09-14T03:38:19.236Z,58.98
2016-09-14T03:39:19.223Z,58.98
2016-09-14T03:40:19.215Z,58.92
2016-09-14T03:41:18.877Z,59.08
2016-09-14T03:42:18.863Z,58.89
2016-09-14T03:43:19.163Z,59.11
2016-09-14T03:44:19.141Z,59.01
2016-09-14T03:45:19.135Z,59.01
2016-09-14T03:46:19.121Z,58.5
2016-09-14T03:47:19.102Z,59.01
2016-09-14T03:48:19.091Z,59.11
2016-09-14T03:49:19.079Z,58.98
2016-09-14T03:50:19.110Z,58.89
2016-09-14T03:51:19.048Z,58.89
2016-09-14T03:52:19.031Z,58.98
2016-09-14T03:53:19.019Z,58.89
2016-09-14T03:54:19.013Z,58.98
2016-09-14T03:55:18.992Z,58.89
2016-09-14T03:56:18.980Z,59.18
2016-09-14T03:57:18.963Z,58.98
2016-09-14T03:58:18.941Z,59.08
2016-09-14T03:59:18.932Z,58.92
2016-09-14T04:00:18.923Z,59.38
2016-09-14T04:01:18.910Z,59.08
2016-09-14T04:02:18.889Z,58.98
2016-09-14T04:03:18.875Z,58.7
2016-09-14T04:04:18.548Z,59.08
2016-09-14T04:05:18.863Z,59.08
2016-09-14T04:06:18.836Z,59.08
2016-09-14T04:07:18.818Z,58.89
2016-09-14T04:08:18.806Z,58.89
2016-09-14T04:09:18.790Z,59.08
2016-09-14T04:10:18.774Z,58.89
2016-09-14T04:11:18.760Z,58.6
2016-09-14T04:12:18.749Z,59.08
2016-09-14T04:13:18.417Z,59.18
2016-09-14T04:14:18.731Z,58.89
2016-09-14T04:15:18.705Z,58.5
2016-09-14T04:16:18.691Z,59.08
2016-09-14T04:17:18.675Z,58.5
2016-09-14T04:18:18.668Z,58.6
2016-09-14T04:19:18.649Z,58.7
2016-09-14T04:20:18.636Z,58.7
2016-09-14T04:21:18.618Z,58.89
2016-09-14T04:22:18.601Z,58.7
2016-09-14T04:23:18.592Z,58.8
2016-09-14T04:24:18.260Z,58.7
2016-09-14T04:25:18.561Z,58.8
2016-09-14T04:26:18.237Z,58.7
2016-09-14T04:27:18.537Z,58.89
2016-09-14T04:28:18.516Z,58.89
2016-09-14T04:29:18.506Z,58.89
2016-09-14T04:30:18.490Z,58.6
2016-09-14T04:31:18.482Z,58.5
2016-09-14T04:32:18.463Z,58.89
2016-09-14T04:33:18.447Z,58.8
2016-09-14T04:34:18.433Z,58.98
2016-09-14T04:35:18.412Z,58.89
2016-09-14T04:36:18.403Z,58.89
2016-09-14T04:37:18.389Z,58.98
2016-09-14T04:38:18.374Z,58.8
2016-09-14T04:39:18.378Z,58.89
2016-09-14T04:40:18.345Z,58.7
2016-09-14T04:41:18.336Z,58.7
2016-09-14T04:42:18.001Z,58.89
2016-09-14T04:43:18.298Z,59.08
2016-09-14T04:44:18.291Z,58.8
2016-09-14T04:45:18.280Z,58.8
2016-09-14T04:46:18.254Z,58.98
2016-09-14T04:47:17.932Z,58.98
2016-09-14T04:48:18.237Z,58.98
2016-09-14T04:49:18.215Z,58.8
2016-09-14T04:50:18.204Z,58.89
2016-09-14T04:51:18.184Z,58.7
2016-09-14T04:52:18.177Z,58.98
2016-09-14T04:53:18.157Z,58.8
2016-09-14T04:54:18.149Z,58.98
2016-09-14T04:55:18.124Z,58.89
2016-09-14T04:56:18.126Z,58.7
2016-09-14T04:57:17.787Z,58.7
2016-09-14T04:58:18.096Z,58.98
2016-09-14T04:59:18.067Z,58.8
2016-09-14T05:00:18.062Z,58.8
2016-09-14T05:01:18.041Z,58.6
2016-09-14T05:02:17.715Z,58.5
2016-09-14T05:03:18.011Z,58.89
2016-09-14T05:04:17.998Z,58.8
2016-09-14T05:05:17.980Z,58.7
2016-09-14T05:06:17.977Z,58.8
2016-09-14T05:07:17.958Z,58.7
2016-09-14T05:08:17.937Z,58.5
2016-09-14T05:09:17.930Z,58.5
2016-09-14T05:10:17.913Z,58.89
2016-09-14T05:11:17.898Z,58.89
2016-09-14T05:12:17.571Z,58.6
2016-09-14T05:13:17.872Z,58.7
2016-09-14T05:14:17.860Z,58.8
2016-09-14T05:15:17.839Z,59.08
2016-09-14T05:16:17.826Z,58.89
2016-09-14T05:17:17.815Z,58.89
2016-09-14T05:18:17.798Z,58.89
2016-09-14T05:19:17.788Z,58.7
2016-09-14T05:20:17.776Z,58.89
2016-09-14T05:21:17.754Z,58.89
2016-09-14T05:22:17.739Z,58.98
2016-09-14T05:23:17.717Z,58.89
2016-09-14T05:24:17.711Z,59.4
2016-09-14T05:25:17.701Z,59.01
2016-09-14T05:26:17.380Z,59.21
2016-09-14T05:27:17.669Z,59.28
2016-09-14T05:28:17.658Z,59.21
2016-09-14T05:29:17.645Z,58.89
2016-09-14T05:30:17.538Z,58.8
2016-09-14T05:31:17.296Z,58.6
2016-09-14T05:32:17.280Z,58.6
2016-09-14T05:33:17.575Z,58.4
2016-09-14T05:34:17.566Z,58.89
2016-09-14T05:35:17.553Z,58.89
2016-09-14T05:36:17.540Z,58.5
2016-09-14T05:37:17.522Z,58.89
2016-09-14T05:38:17.196Z,58.89
2016-09-14T05:39:17.496Z,59.28
2016-09-14T05:40:17.165Z,58.98
2016-09-14T05:41:17.468Z,58.89
2016-09-14T05:42:17.455Z,58.89
2016-09-14T05:43:17.117Z,58.98
2016-09-14T05:44:17.109Z,59.08
2016-09-14T05:45:17.408Z,58.89
2016-09-14T05:46:17.400Z,58.8
2016-09-14T05:47:17.376Z,58.89
2016-09-14T05:48:17.365Z,58.98
2016-09-14T05:49:17.346Z,59.08
2016-09-14T05:50:17.330Z,59.08
2016-09-14T05:51:17.326Z,58.89
2016-09-14T05:52:17.312Z,59.08
2016-09-14T05:53:16.977Z,58.89
2016-09-14T05:54:16.968Z,59.28
2016-09-14T05:55:17.260Z,58.89
2016-09-14T05:56:17.255Z,59.18
2016-09-14T05:57:17.235Z,58.98
2016-09-14T05:58:17.221Z,59.18
2016-09-14T05:59:17.209Z,59.21
2016-09-14T06:00:17.194Z,59.4
2016-09-14T06:01:17.176Z,59.79
2016-09-14T06:02:17.156Z,59.38
2016-09-14T06:03:17.152Z,59.38
2016-09-14T06:04:17.135Z,59.31
2016-09-14T06:05:16.803Z,59.5
2016-09-14T06:06:17.107Z,59.79
2016-09-14T06:07:17.092Z,59.31
2016-09-14T06:08:17.076Z,59.69
2016-09-14T06:09:17.070Z,59.59
2016-09-14T06:10:16.737Z,59.69
2016-09-14T06:11:16.717Z,59.89
2016-09-14T06:12:17.021Z,59.69
2016-09-14T06:13:16.999Z,59.69
2016-09-14T06:14:16.673Z,59.79
2016-09-14T06:15:16.659Z,59.4
2016-09-14T06:16:16.968Z,59.79
2016-09-14T06:17:16.945Z,59.98
2016-09-14T06:18:16.930Z,59.69
2016-09-14T06:19:16.608Z,59.79
2016-09-14T06:20:16.907Z,60.08
2016-09-14T06:21:16.891Z,59.21
2016-09-14T06:22:16.872Z,59.98
2016-09-14T06:23:16.859Z,59.31
2016-09-14T06:24:16.844Z,59.89
2016-09-14T06:25:16.840Z,59.79
2016-09-14T06:26:16.813Z,59.69
2016-09-14T06:27:16.803Z,59.79
2016-09-14T06:28:16.475Z,59.59
2016-09-14T06:29:16.776Z,59.4
2016-09-14T06:30:16.761Z,59.59
2016-09-14T06:31:16.748Z,59.5
2016-09-14T06:32:16.728Z,59.89
2016-09-14T06:33:16.719Z,59.5
2016-09-14T06:34:16.702Z,59.69
2016-09-14T06:35:16.690Z,59.59
2016-09-14T06:36:16.672Z,59.59
2016-09-14T06:37:16.660Z,59.59
2016-09-14T06:38:16.659Z,59.5
2016-09-14T06:39:16.314Z,59.5
2016-09-14T06:40:16.609Z,59.89
2016-09-14T06:41:16.289Z,59.79
2016-09-14T06:42:16.594Z,59.89
2016-09-14T06:43:16.569Z,59.69
2016-09-14T06:44:16.560Z,59.59
2016-09-14T06:45:16.545Z,59.59
2016-09-14T06:46:16.530Z,59.79
2016-09-14T06:47:16.194Z,59.98
2016-09-14T06:48:16.496Z,59.98
2016-09-14T06:49:16.176Z,60.17
2016-09-14T06:50:16.520Z,59.69
2016-09-14T06:51:16.147Z,60.08
2016-09-14T06:52:16.445Z,60.57
2016-09-14T06:53:16.113Z,60.17
2016-09-14T06:54:16.413Z,60.37
2016-09-14T06:55:16.401Z,60.47
2016-09-14T06:56:16.381Z,60.37
2016-09-14T06:57:16.372Z,60.27
2016-09-14T06:58:16.351Z,60.17
2016-09-14T06:59:16.343Z,60.27
2016-09-14T07:00:16.329Z,60.27
2016-09-14T07:01:16.311Z,60.08
2016-09-14T07:02:15.987Z,60.17
2016-09-14T07:03:16.282Z,60.37
2016-09-14T07:04:16.272Z,60.08
2016-09-14T07:05:16.254Z,60.37
2016-09-14T07:06:15.924Z,60.27
2016-09-14T07:07:15.914Z,60.66
2016-09-14T07:08:16.213Z,60.27
2016-09-14T07:09:16.208Z,60.66
2016-09-14T07:10:16.193Z,60.17
2016-09-14T07:11:16.172Z,60.66
2016-09-14T07:12:15.847Z,60.66
2016-09-14T07:13:16.142Z,60.66
2016-09-14T07:14:16.130Z,60.17
2016-09-14T07:15:16.105Z,60.66
2016-09-14T07:16:15.786Z,60.78
2016-09-14T07:17:16.091Z,60.27
2016-09-14T07:18:16.072Z,60.4
2016-09-14T07:19:16.056Z,60.3
2016-09-14T07:20:16.047Z,60.4
2016-09-14T07:21:16.029Z,61.18
2016-09-14T07:22:16.024Z,60.75
2016-09-14T07:23:15.689Z,59.98
2016-09-14T07:24:15.988Z,60.78
2016-09-14T07:25:15.970Z,60.75
2016-09-14T07:26:15.956Z,61.27
2016-09-14T07:27:15.947Z,60.59
2016-09-14T07:28:15.934Z,60.98
2016-09-14T07:29:15.917Z,61.27
2016-09-14T07:30:15.895Z,61.18
2016-09-14T07:31:15.886Z,61.08
2016-09-14T07:32:15.866Z,61.08
2016-09-14T07:33:15.853Z,61.08
2016-09-14T07:34:15.528Z,60.88
2016-09-14T07:35:15.512Z,61.08
2016-09-14T07:36:15.809Z,60.59
2016-09-14T07:37:15.793Z,60.59
2016-09-14T07:38:15.481Z,60.69
2016-09-14T07:39:15.774Z,60.69
2016-09-14T07:40:15.760Z,60.88
2016-09-14T07:41:15.429Z,60.78
2016-09-14T07:42:15.413Z,60.98
2016-09-14T07:43:15.726Z,60.69
2016-09-14T07:44:15.702Z,60.98
2016-09-14T07:45:15.374Z,61.56
2016-09-14T07:46:15.669Z,61.56
2016-09-14T07:47:15.663Z,61.36
2016-09-14T07:48:15.328Z,61.56
2016-09-14T07:49:15.630Z,61.66
2016-09-14T07:50:15.622Z,61.08
2016-09-14T07:51:15.600Z,61.18
2016-09-14T07:52:15.271Z,61.08
2016-09-14T07:53:15.577Z,61.08
2016-09-14T07:54:15.560Z,61.18
2016-09-14T07:55:15.227Z,61.08
2016-09-14T07:56:15.530Z,61.66
2016-09-14T07:57:15.518Z,61.56
2016-09-14T07:58:15.500Z,61.56
2016-09-14T07:59:15.492Z,61.76
2016-09-14T08:00:15.473Z,61.66
2016-09-14T08:01:15.461Z,61.95
2016-09-14T08:02:15.446Z,61.76
2016-09-14T08:03:15.430Z,61.46
2016-09-14T08:04:15.414Z,61.85
2016-09-14T08:05:15.405Z,61.76
2016-09-14T08:06:15.390Z,61.56
2016-09-14T08:07:15.058Z,62.04
2016-09-14T08:08:15.364Z,61.85
2016-09-14T08:09:15.346Z,62.14
2016-09-14T08:10:15.342Z,61.66
2016-09-14T08:11:15.309Z,61.85
2016-09-14T08:12:14.989Z,61.95
2016-09-14T08:13:15.286Z,61.85
2016-09-14T08:14:14.960Z,61.56
2016-09-14T08:15:15.259Z,61.66
2016-09-14T08:16:15.240Z,61.66
2016-09-14T08:17:14.917Z,61.27
2016-09-14T08:18:15.212Z,61.56
2016-09-14T08:19:14.892Z,61.98
2016-09-14T08:20:15.187Z,61.79
2016-09-14T08:21:15.185Z,61.88
2016-09-14T08:22:15.152Z,61.27
2016-09-14T08:23:15.149Z,61.4
2016-09-14T08:24:15.134Z,61.4
2016-09-14T08:25:15.115Z,61.98
2016-09-14T08:26:15.105Z,61.88
2016-09-14T08:27:15.090Z,61.59
2016-09-14T08:28:15.075Z,61.59
2016-09-14T08:29:15.062Z,61.88
2016-09-14T08:30:15.042Z,61.79
2016-09-14T08:31:15.035Z,61.69
2016-09-14T08:32:15.018Z,61.69
2016-09-14T08:33:15.002Z,61.88
2016-09-14T08:34:14.989Z,61.98
2016-09-14T08:35:14.974Z,62.07
2016-09-14T08:36:14.648Z,61.98
2016-09-14T08:37:14.951Z,61.49
2016-09-14T08:38:14.932Z,61.88
2016-09-14T08:39:14.923Z,61.69
2016-09-14T08:40:14.904Z,62.27
2016-09-14T08:41:14.577Z,61.59
2016-09-14T08:42:14.891Z,61.98
2016-09-14T08:43:14.863Z,61.79
2016-09-14T08:44:14.849Z,61.69
2016-09-14T08:45:14.513Z,62.27
2016-09-14T08:46:14.819Z,62.17
2016-09-14T08:47:14.804Z,61.88
2016-09-14T08:48:14.794Z,61.98
2016-09-14T08:49:14.777Z,62.07
2016-09-14T08:50:14.772Z,61.88
2016-09-14T08:51:14.746Z,62.37
2016-09-14T08:52:14.734Z,62.46
2016-09-14T08:53:14.414Z,62.46
2016-09-14T08:54:14.707Z,61.79
2016-09-14T08:55:14.699Z,62.27
2016-09-14T08:56:14.692Z,62.56
2016-09-14T08:57:14.665Z,62.46
2016-09-14T08:58:14.653Z,62.46
2016-09-14T08:59:14.325Z,62.27
2016-09-14T09:00:14.625Z,62.75
2016-09-14T09:01:14.293Z,62.56
2016-09-14T09:02:14.592Z,62.66
2016-09-14T09:03:14.580Z,62.66
2016-09-14T09:04:14.585Z,62.75
2016-09-14T09:05:14.553Z,62.17
2016-09-14T09:06:14.539Z,62.75
2016-09-14T09:07:14.536Z,62.43
2016-09-14T09:08:14.191Z,62.07
2016-09-14T09:09:14.516Z,62.56
2016-09-14T09:10:14.484Z,61.79
2016-09-14T09:11:14.467Z,62.37
2016-09-14T09:12:14.454Z,62.56
2016-09-14T09:13:14.446Z,62.56
2016-09-14T09:14:14.428Z,62.66
2016-09-14T09:15:14.415Z,62.56
2016-09-14T09:16:14.405Z,61.49
2016-09-14T09:17:14.388Z,62.75
2016-09-14T09:18:14.383Z,62.56
2016-09-14T09:19:14.355Z,62.37
2016-09-14T09:20:14.342Z,61.88
2016-09-14T09:21:14.326Z,62.37
2016-09-14T09:22:14.308Z,62.46
2016-09-14T09:23:14.300Z,61.98
2016-09-14T09:24:14.285Z,62.27
2016-09-14T09:25:14.268Z,62.24
2016-09-14T09:26:14.262Z,62.37
2016-09-14T09:27:13.936Z,62.07
2016-09-14T09:28:14.232Z,61.98
2016-09-14T09:29:14.217Z,62.17
2016-09-14T09:30:14.197Z,61.88
2016-09-14T09:31:13.870Z,62.37
2016-09-14T09:32:13.859Z,62.37
2016-09-14T09:33:14.161Z,62.46
2016-09-14T09:34:14.142Z,62.46
2016-09-14T09:35:14.127Z,61.88
2016-09-14T09:36:14.121Z,62.66
2016-09-14T09:37:14.097Z,62.37
2016-09-14T09:38:13.780Z,62.17
2016-09-14T09:39:14.079Z,62.37
2016-09-14T09:40:14.060Z,62.46
2016-09-14T09:41:13.729Z,62.56
2016-09-14T09:42:14.038Z,62.46
2016-09-14T09:43:14.019Z,62.46
2016-09-14T09:44:14.004Z,62.46
2016-09-14T09:45:13.999Z,62.46
2016-09-14T09:46:13.982Z,62.46
2016-09-14T09:47:13.966Z,62.56
2016-09-14T09:48:13.954Z,62.46
2016-09-14T09:49:13.942Z,61.98
2016-09-14T09:50:13.914Z,62.56
2016-09-14T09:51:13.903Z,62.56
2016-09-14T09:52:13.889Z,62.17
2016-09-14T09:53:13.556Z,62.56
2016-09-14T09:54:13.863Z,62.46
2016-09-14T09:55:13.862Z,62.46
2016-09-14T09:56:13.833Z,62.37
2016-09-14T09:57:13.820Z,62.46
2016-09-14T09:58:13.809Z,62.27
2016-09-14T09:59:13.793Z,62.37
2016-09-14T10:00:13.782Z,62.56
2016-09-14T10:01:13.764Z,62.37
2016-09-14T10:02:13.433Z,62.37
2016-09-14T10:03:13.736Z,61.79
2016-09-14T10:04:13.411Z,62.37
2016-09-14T10:05:13.704Z,62.37
2016-09-14T10:06:13.709Z,62.37
2016-09-14T10:07:13.682Z,62.46
2016-09-14T10:08:13.668Z,61.88
2016-09-14T10:09:13.334Z,62.66
2016-09-14T10:10:13.639Z,62.66
2016-09-14T10:11:13.629Z,62.85
2016-09-14T10:12:13.615Z,62.46
2016-09-14T10:13:13.278Z,62.85
2016-09-14T10:14:13.588Z,62.46
2016-09-14T10:15:13.256Z,62.85
2016-09-14T10:16:13.556Z,62.37
2016-09-14T10:17:13.545Z,62.56
2016-09-14T10:18:13.524Z,62.46
2016-09-14T10:19:13.201Z,61.88
2016-09-14T10:20:13.497Z,62.46
2016-09-14T10:21:13.480Z,62.56
2016-09-14T10:22:13.469Z,62.66
2016-09-14T10:23:13.454Z,61.79
2016-09-14T10:24:13.451Z,62.75
2016-09-14T10:25:13.424Z,62.46
2016-09-14T10:26:13.418Z,62.66
2016-09-14T10:27:13.084Z,62.75
2016-09-14T10:28:13.385Z,62.37
2016-09-14T10:29:13.375Z,61.79
2016-09-14T10:30:13.353Z,62.37
2016-09-14T10:31:13.345Z,62.75
2016-09-14T10:32:13.332Z,62.27
2016-09-14T10:33:13.317Z,62.17
2016-09-14T10:34:13.306Z,62.85
2016-09-14T10:35:13.286Z,62.75
2016-09-14T10:36:13.276Z,62.27
2016-09-14T10:37:13.260Z,62.07
2016-09-14T10:38:13.246Z,62.56
2016-09-14T10:39:12.928Z,62.46
2016-09-14T10:40:12.900Z,61.98
2016-09-14T10:41:13.201Z,62.56
2016-09-14T10:42:13.198Z,62.46
2016-09-14T10:43:13.179Z,62.37
2016-09-14T10:44:13.165Z,62.75
2016-09-14T10:45:13.147Z,62.37
2016-09-14T10:46:13.137Z,62.56
2016-09-14T10:47:13.124Z,62.56
2016-09-14T10:48:13.108Z,62.66
2016-09-14T10:49:12.775Z,62.46
2016-09-14T10:50:13.078Z,62.46
2016-09-14T10:51:13.067Z,62.37
2016-09-14T10:52:13.052Z,62.66
2016-09-14T10:53:13.036Z,62.66
2016-09-14T10:54:13.073Z,62.66
2016-09-14T10:55:13.016Z,62.46
2016-09-14T10:56:12.999Z,62.27
2016-09-14T10:57:12.984Z,62.66
2016-09-14T10:58:12.969Z,62.56
2016-09-14T10:59:12.954Z,62.46
2016-09-14T11:00:12.946Z,62.37
2016-09-14T11:01:12.923Z,62.56
2016-09-14T11:02:12.915Z,62.75
2016-09-14T11:03:12.896Z,62.75
2016-09-14T11:04:12.885Z,62.85
2016-09-14T11:05:12.868Z,62.85
2016-09-14T11:06:12.852Z,62.85
2016-09-14T11:07:12.842Z,62.75
2016-09-14T11:08:12.824Z,62.66
2016-09-14T11:09:12.815Z,63.04
2016-09-14T11:10:12.800Z,62.66
2016-09-14T11:11:12.797Z,62.85
2016-09-14T11:12:12.770Z,62.85
2016-09-14T11:13:12.755Z,63.04
2016-09-14T11:14:12.746Z,63.14
2016-09-14T11:15:12.729Z,62.56
2016-09-14T11:16:12.717Z,62.75
2016-09-14T11:17:12.708Z,63.04
2016-09-14T11:18:12.695Z,62.75
2016-09-14T11:19:12.673Z,62.66
2016-09-14T11:20:12.348Z,62.95
2016-09-14T11:21:12.653Z,63.24
2016-09-14T11:22:12.632Z,63.24
2016-09-14T11:23:12.617Z,63.34
2016-09-14T11:24:12.608Z,63.04
2016-09-14T11:25:12.590Z,63.34
2016-09-14T11:26:12.583Z,62.75
2016-09-14T11:27:12.561Z,63.04
2016-09-14T11:28:12.546Z,63.43
2016-09-14T11:29:12.531Z,63.04
2016-09-14T11:30:12.532Z,63.24
2016-09-14T11:31:12.505Z,62.95
2016-09-14T11:32:12.492Z,63.14
2016-09-14T11:33:12.488Z,62.85
2016-09-14T11:34:12.470Z,63.43
2016-09-14T11:35:12.449Z,63.34
2016-09-14T11:36:12.456Z,63.04
2016-09-14T11:37:12.431Z,63.04
2016-09-14T11:38:12.407Z,63.14
2016-09-14T11:39:12.402Z,63.14
2016-09-14T11:40:12.381Z,63.04
2016-09-14T11:41:12.368Z,63.14
2016-09-14T11:42:12.353Z,62.95
2016-09-14T11:43:12.348Z,63.04
2016-09-14T11:44:12.328Z,62.95
2016-09-14T11:45:12.311Z,63.14
2016-09-14T11:46:12.298Z,63.24
2016-09-14T11:47:12.283Z,63.34
2016-09-14T11:48:12.268Z,63.14
2016-09-14T11:49:12.260Z,63.14
2016-09-14T11:50:12.241Z,63.34
2016-09-14T11:51:12.236Z,63.14
2016-09-14T11:52:12.212Z,63.24
2016-09-14T11:53:12.202Z,63.14
2016-09-14T11:54:11.880Z,63.24
2016-09-14T11:55:12.176Z,63.14
2016-09-14T11:56:12.159Z,63.62
2016-09-14T11:57:12.325Z,63.82
2016-09-14T11:58:12.132Z,63.72
2016-09-14T11:59:12.125Z,63.53
2016-09-14T12:00:12.100Z,63.72
2016-09-14T12:01:12.093Z,63.53
2016-09-14T12:02:12.075Z,63.82
2016-09-14T12:03:12.060Z,63.82
2016-09-14T12:04:12.050Z,63.72
2016-09-14T12:05:12.035Z,63.53
2016-09-14T12:06:12.024Z,63.92
2016-09-14T12:07:12.011Z,63.82
2016-09-14T12:08:11.990Z,63.72
2016-09-14T12:09:11.983Z,63.53
2016-09-14T12:10:11.969Z,63.82
2016-09-14T12:11:11.953Z,63.92
2016-09-14T12:12:11.949Z,63.62
2016-09-14T12:13:11.931Z,63.72
2016-09-14T12:14:11.913Z,63.72
2016-09-14T12:15:11.901Z,63.72
2016-09-14T12:16:11.880Z,63.82
2016-09-14T12:17:11.875Z,63.24
2016-09-14T12:18:11.855Z,63.04
2016-09-14T12:19:11.840Z,63.72
2016-09-14T12:20:11.843Z,63.72
2016-09-14T12:21:11.820Z,62.95
2016-09-14T12:22:11.799Z,63.14
2016-09-14T12:23:11.790Z,62.95
2016-09-14T12:24:11.771Z,63.92
2016-09-14T12:25:11.768Z,62.85
2016-09-14T12:26:11.743Z,63.43
2016-09-14T12:27:11.731Z,63.72
2016-09-14T12:28:11.722Z,63.72
2016-09-14T12:29:11.700Z,63.62
2016-09-14T12:30:11.691Z,63.72
2016-09-14T12:31:11.674Z,63.53
2016-09-14T12:32:11.660Z,63.62
2016-09-14T12:33:11.642Z,63.62
2016-09-14T12:34:11.637Z,63.53
2016-09-14T12:35:11.622Z,63.53
2016-09-14T12:36:11.615Z,63.82
2016-09-14T12:37:11.593Z,63.72
2016-09-14T12:38:11.576Z,63.72
2016-09-14T12:39:11.560Z,63.53
2016-09-14T12:40:11.550Z,63.62
2016-09-14T12:41:11.538Z,63.72
2016-09-14T12:42:11.527Z,63.82
2016-09-14T12:43:11.516Z,63.82
2016-09-14T12:44:11.495Z,63.72
2016-09-14T12:45:11.483Z,63.43
2016-09-14T12:46:11.467Z,63.53
2016-09-14T12:47:11.461Z,63.72
2016-09-14T12:48:11.440Z,63.62
2016-09-14T12:49:11.428Z,63.62
2016-09-14T12:50:11.416Z,63.34
2016-09-14T12:51:11.405Z,63.53
2016-09-14T12:52:11.081Z,63.34
2016-09-14T12:53:11.372Z,64.01
2016-09-14T12:54:11.378Z,63.34